createdAt,value
2022-10-26T00:01:09.921Z,77.17
2022-10-26T00:03:23.196Z,77.28
2022-10-26T00:06:48.995Z,77.27
2022-10-26T00:09:31.257Z,77.18
2022-10-26T00:12:12.420Z,77.26
2022-10-26T00:18:14.317Z,76.94
2022-10-26T00:21:14.008Z,76.84
2022-10-26T00:24:14.738Z,77.01
2022-10-26T00:27:12.215Z,77.02
2022-10-26T00:30:01.810Z,77.09
2022-10-26T00:36:29.476Z,76.61
2022-10-26T00:39:36.312Z,76.98
2022-10-26T00:42:34.374Z,76.96
2022-10-26T00:45:28.455Z,76.77
2022-10-26T00:48:56.886Z,77.09
2022-10-26T00:51:57.355Z,76.50
2022-10-26T00:54:31.456Z,76.74
2022-10-26T00:57:34.845Z,75.99
2022-10-26T01:00:19.096Z,76.42
2022-10-26T01:13:03.525Z,77.17
2022-10-26T01:23:16.622Z,77.16
2022-10-26T01:26:58.084Z,76.90
2022-10-26T01:46:34.459Z,77.49
2022-10-26T01:49:17.531Z,77.44
2022-10-26T01:52:08.421Z,77.12
2022-10-26T01:57:48.192Z,76.76
2022-10-26T02:04:05.421Z,76.31
2022-10-26T02:07:46.446Z,76.21
2022-10-26T02:10:48.445Z,76.36
2022-10-26T02:14:03.628Z,75.73
2022-10-26T02:17:08.706Z,75.84
2022-10-26T02:23:59.330Z,75.58
2022-10-26T02:33:46.273Z,75.75
2022-10-26T02:36:43.838Z,75.85
2022-10-26T02:39:19.769Z,75.72
2022-10-26T02:42:39.376Z,75.57
2022-10-26T02:45:47.578Z,75.71
2022-10-26T02:48:34.612Z,75.21
2022-10-26T02:51:35.946Z,75.07
2022-10-26T02:57:46.053Z,75.21
2022-10-26T03:00:17.875Z,74.96
2022-10-26T03:02:48.752Z,75.24
2022-10-26T03:05:51.367Z,75.21
2022-10-26T03:08:37.732Z,75.68
2022-10-26T03:11:18.150Z,76.00
2022-10-26T03:13:58.446Z,75.63
2022-10-26T03:16:48.206Z,75.79
2022-10-26T03:19:21.579Z,75.98
2022-10-26T03:22:22.742Z,75.85
2022-10-26T03:24:59.045Z,75.73
2022-10-26T03:28:22.089Z,75.66
2022-10-26T03:30:52.904Z,76.00
2022-10-26T03:33:34.512Z,76.09
2022-10-26T03:36:20.888Z,76.26
2022-10-26T03:41:55.627Z,75.67
2022-10-26T03:44:23.476Z,75.86
2022-10-26T03:46:55.279Z,76.08
2022-10-26T03:52:53.197Z,75.88
2022-10-26T03:55:20.059Z,75.92
2022-10-26T03:57:47.015Z,75.77
2022-10-26T04:00:15.752Z,76.01
2022-10-26T04:02:47.102Z,76.17
2022-10-26T04:16:12.405Z,76.84
2022-10-26T04:18:39.069Z,76.73
2022-10-26T04:21:05.764Z,76.66
2022-10-26T04:24:20.632Z,76.49
2022-10-26T04:29:28.809Z,76.52
2022-10-26T04:31:55.732Z,76.88
2022-10-26T04:34:22.785Z,76.96
2022-10-26T04:36:49.696Z,76.79
2022-10-26T04:39:16.631Z,76.81
2022-10-26T04:41:43.658Z,77.14
2022-10-26T04:44:10.507Z,76.95
2022-10-26T04:46:37.384Z,77.04
2022-10-26T04:49:04.336Z,77.04
2022-10-26T04:51:31.220Z,76.82
2022-10-26T04:53:58.437Z,76.63
2022-10-26T04:56:25.319Z,77.03
2022-10-26T04:58:54.585Z,76.72
2022-10-26T05:01:22.143Z,76.61
2022-10-26T05:03:50.844Z,76.50
2022-10-26T05:06:17.931Z,76.52
2022-10-26T05:08:44.875Z,76.59
2022-10-26T05:11:11.831Z,76.26
2022-10-26T05:13:38.895Z,76.63
2022-10-26T05:16:06.349Z,76.78
2022-10-26T05:18:33.155Z,76.90
2022-10-26T05:21:38.112Z,76.62
2022-10-26T05:27:28.646Z,76.99
2022-10-26T05:30:51.125Z,76.89
2022-10-26T05:34:24.084Z,77.11
2022-10-26T05:36:53.539Z,76.97
2022-10-26T05:39:45.345Z,77.18
2022-10-26T05:42:51.302Z,76.84
2022-10-26T05:45:34.822Z,77.20
2022-10-26T05:49:28.878Z,77.23
2022-10-26T05:52:07.009Z,77.53
2022-10-26T05:54:50.623Z,77.45
2022-10-26T05:57:35.802Z,77.36
2022-10-26T06:00:24.433Z,77.23
2022-10-26T06:03:09.358Z,77.24
2022-10-26T06:06:02.802Z,77.53
2022-10-26T06:09:07.826Z,77.67
2022-10-26T06:11:35.024Z,77.67
2022-10-26T06:14:02.015Z,77.94
2022-10-26T06:16:50.006Z,78.14
2022-10-26T06:19:38.503Z,77.87
2022-10-26T06:22:12.281Z,78.19
2022-10-26T06:25:13.701Z,78.54
2022-10-26T06:27:57.132Z,78.54
2022-10-26T06:30:23.913Z,78.71
2022-10-26T06:33:01.201Z,78.39
2022-10-26T06:35:41.248Z,78.82
2022-10-26T06:38:19.245Z,78.50
2022-10-26T06:40:49.874Z,78.75
2022-10-26T06:43:34.577Z,78.71
2022-10-26T06:46:46.736Z,78.86
2022-10-26T06:49:32.731Z,78.66
2022-10-26T06:52:40.448Z,78.79
2022-10-26T06:55:13.937Z,78.92
2022-10-26T06:57:42.743Z,79.28
2022-10-26T07:00:20.493Z,79.31
2022-10-26T07:02:48.645Z,79.45
2022-10-26T07:05:15.769Z,79.34
2022-10-26T07:07:44.229Z,79.08
2022-10-26T07:10:11.996Z,79.15
2022-10-26T07:12:39.064Z,79.12
2022-10-26T07:15:06.475Z,79.36
2022-10-26T07:17:50.150Z,79.21
2022-10-26T07:20:19.986Z,79.40
2022-10-26T07:22:54.686Z,79.53
2022-10-26T07:25:22.359Z,79.13
2022-10-26T07:27:49.350Z,79.17
2022-10-26T07:30:16.316Z,79.45
2022-10-26T07:32:43.133Z,79.61
2022-10-26T07:35:10.214Z,79.80
2022-10-26T07:37:37.693Z,79.60
2022-10-26T07:40:07.570Z,79.58
2022-10-26T07:42:34.785Z,80.05
2022-10-26T07:45:01.441Z,80.12
2022-10-26T07:47:28.127Z,80.19
2022-10-26T07:49:54.767Z,80.18
2022-10-26T07:52:21.490Z,80.41
2022-10-26T07:54:55.803Z,80.32
2022-10-26T07:57:22.535Z,80.72
2022-10-26T07:59:49.500Z,80.65
2022-10-26T08:02:16.218Z,80.80
2022-10-26T08:04:44.041Z,80.83
2022-10-26T08:07:10.773Z,80.90
2022-10-26T08:09:37.652Z,81.08
2022-10-26T08:12:04.522Z,81.53
2022-10-26T08:14:31.238Z,81.53
2022-10-26T08:16:57.907Z,81.74
2022-10-26T08:19:24.639Z,81.69
2022-10-26T08:21:51.259Z,81.48
2022-10-26T08:24:18.036Z,82.27
2022-10-26T08:26:47.882Z,82.36
2022-10-26T08:29:14.534Z,82.43
2022-10-26T08:31:41.825Z,82.22
2022-10-26T08:34:08.635Z,82.29
2022-10-26T08:36:35.509Z,82.62
2022-10-26T08:39:02.180Z,82.54
2022-10-26T08:41:44.157Z,82.45
2022-10-26T08:44:28.861Z,82.73
2022-10-26T08:46:58.852Z,82.78
2022-10-26T08:49:28.919Z,83.02
2022-10-26T08:51:59.154Z,83.09
2022-10-26T08:54:36.314Z,83.25
2022-10-26T08:57:10.497Z,83.41
2022-10-26T08:59:52.670Z,82.98
2022-10-26T09:02:20.415Z,83.24
2022-10-26T09:04:47.116Z,83.33
2022-10-26T09:07:40.466Z,83.07
2022-10-26T09:13:19.659Z,83.23
2022-10-26T09:16:04.741Z,83.06
2022-10-26T09:18:49.261Z,83.43
2022-10-26T09:21:35.548Z,83.39
2022-10-26T09:24:21.070Z,83.09
2022-10-26T09:26:55.006Z,83.44
2022-10-26T09:29:26.378Z,83.11
2022-10-26T09:31:55.408Z,83.12
2022-10-26T09:34:29.208Z,82.95
2022-10-26T09:36:56.534Z,82.86
2022-10-26T09:39:44.949Z,82.79
2022-10-26T09:42:39.025Z,82.91
2022-10-26T09:45:18.488Z,82.65
2022-10-26T09:47:50.345Z,82.46
2022-10-26T09:50:26.621Z,82.48
2022-10-26T09:52:53.425Z,82.36
2022-10-26T09:55:21.991Z,82.22
2022-10-26T09:57:52.331Z,81.88
2022-10-26T10:00:21.221Z,81.98
2022-10-26T10:02:53.954Z,81.69
2022-10-26T10:05:50.400Z,81.67
2022-10-26T10:08:19.307Z,81.09
2022-10-26T10:11:05.490Z,81.26
2022-10-26T10:13:34.619Z,80.80
2022-10-26T10:16:11.966Z,80.38
2022-10-26T10:18:39.997Z,80.22
2022-10-26T10:21:07.208Z,79.97
2022-10-26T10:35:52.402Z,78.53
2022-10-26T10:48:20.782Z,76.91
2022-10-26T11:05:27.498Z,74.38
2022-10-26T11:08:21.454Z,74.16
2022-10-26T11:11:08.928Z,73.57
2022-10-26T11:13:37.119Z,73.38
2022-10-26T11:16:50.379Z,73.06
2022-10-26T11:19:21.804Z,72.51
2022-10-26T11:22:05.642Z,71.95
2022-10-26T11:24:39.573Z,71.66
2022-10-26T11:27:15.588Z,71.29
2022-10-26T11:30:15.384Z,71.09
2022-10-26T11:32:52.673Z,71.30
2022-10-26T11:35:45.363Z,70.56
2022-10-26T11:38:46.239Z,70.40
2022-10-26T11:41:24.816Z,69.97
2022-10-26T11:44:34.124Z,70.04
2022-10-26T11:47:08.488Z,69.90
2022-10-26T11:49:42.701Z,68.90
2022-10-26T11:52:18.085Z,68.89
2022-10-26T11:54:48.866Z,68.53
2022-10-26T11:57:16.941Z,68.30
2022-10-26T11:59:48.460Z,68.54
2022-10-26T12:02:18.747Z,68.00
2022-10-26T12:04:49.660Z,67.80
2022-10-26T12:07:22.043Z,67.64
2022-10-26T12:09:48.860Z,67.26
2022-10-26T12:12:26.369Z,66.75
2022-10-26T12:15:14.246Z,66.82
2022-10-26T12:17:50.398Z,66.69
2022-10-26T12:20:46.545Z,66.31
2022-10-26T12:23:19.093Z,65.88
2022-10-26T12:26:23.694Z,65.73
2022-10-26T12:29:02.625Z,65.30
2022-10-26T12:31:32.500Z,65.19
2022-10-26T12:34:00.042Z,64.60
2022-10-26T12:36:54.667Z,63.93
2022-10-26T12:39:37.407Z,64.27
2022-10-26T12:42:10.513Z,63.90
2022-10-26T12:45:00.948Z,63.54
2022-10-26T12:47:27.522Z,63.18
2022-10-26T12:50:00.530Z,62.91
2022-10-26T12:52:43.837Z,63.28
2022-10-26T12:55:13.539Z,63.05
2022-10-26T12:58:02.462Z,61.97
2022-10-26T13:00:29.334Z,62.21
2022-10-26T13:03:19.882Z,61.77
2022-10-26T13:06:26.015Z,61.71
2022-10-26T13:08:57.814Z,61.45
2022-10-26T13:11:35.286Z,61.13
2022-10-26T13:14:05.475Z,61.27
2022-10-26T13:16:32.407Z,61.12
2022-10-26T13:18:59.554Z,60.78
2022-10-26T13:21:26.691Z,60.93
2022-10-26T13:23:53.278Z,60.96
2022-10-26T13:26:22.280Z,60.76
2022-10-26T13:28:53.806Z,60.20
2022-10-26T13:31:41.838Z,59.92
2022-10-26T13:37:24.389Z,59.75
2022-10-26T13:39:55.929Z,59.72
2022-10-26T13:45:29.045Z,59.76
2022-10-26T13:48:06.392Z,59.61
2022-10-26T13:50:47.328Z,59.30
2022-10-26T13:53:22.847Z,59.00
2022-10-26T13:56:06.067Z,59.02
2022-10-26T13:58:37.593Z,59.13
2022-10-26T14:01:13.355Z,58.62
2022-10-26T14:03:41.354Z,58.02
2022-10-26T14:06:11.738Z,58.17
2022-10-26T14:08:40.751Z,58.29
2022-10-26T14:11:11.492Z,58.31
2022-10-26T14:13:42.476Z,58.54
2022-10-26T14:16:18.514Z,58.64
2022-10-26T14:19:09.653Z,58.78
2022-10-26T14:21:40.413Z,58.59
2022-10-26T14:24:45.701Z,58.70
2022-10-26T14:27:46.690Z,58.61
2022-10-26T14:30:44.699Z,58.81
2022-10-26T14:33:26.864Z,58.68
2022-10-26T14:35:57.337Z,58.72
2022-10-26T14:41:55.106Z,58.77
2022-10-26T14:44:23.681Z,58.81
2022-10-26T14:47:00.217Z,59.11
2022-10-26T14:49:46.497Z,59.33
2022-10-26T14:52:17.269Z,59.49
2022-10-26T14:55:25.711Z,59.88
2022-10-26T14:57:54.710Z,60.23
2022-10-26T15:00:25.779Z,60.73
2022-10-26T15:02:54.585Z,61.54
2022-10-26T15:05:34.662Z,61.66
2022-10-26T15:08:03.455Z,62.19
2022-10-26T15:10:39.144Z,62.83
2022-10-26T15:13:25.243Z,62.91
2022-10-26T15:15:58.378Z,63.39
2022-10-26T15:22:19.103Z,64.41
2022-10-26T15:25:25.667Z,65.21
2022-10-26T15:28:21.009Z,66.03
2022-10-26T15:31:06.138Z,66.30
2022-10-26T15:33:34.107Z,66.96
2022-10-26T15:36:15.885Z,67.38
2022-10-26T15:38:43.694Z,67.36
2022-10-26T15:41:16.257Z,67.47
2022-10-26T15:43:43.241Z,67.89
2022-10-26T15:46:10.040Z,67.71
2022-10-26T15:48:38.893Z,68.25
2022-10-26T15:51:05.779Z,68.52
2022-10-26T15:53:40.025Z,68.64
2022-10-26T15:56:14.991Z,68.69
2022-10-26T15:58:41.727Z,69.20
2022-10-26T16:01:17.357Z,69.28
2022-10-26T16:03:44.756Z,69.49
2022-10-26T16:06:25.701Z,69.45
2022-10-26T16:09:04.095Z,69.88
2022-10-26T16:11:31.262Z,70.24
2022-10-26T16:14:03.528Z,70.29
2022-10-26T16:19:44.379Z,70.83
2022-10-26T16:24:40.908Z,71.23
2022-10-26T16:27:07.646Z,71.10
2022-10-26T16:29:34.343Z,71.55
2022-10-26T16:32:01.054Z,71.55
2022-10-26T16:34:27.764Z,71.62
2022-10-26T16:37:04.653Z,71.75
2022-10-26T16:39:45.866Z,71.97
2022-10-26T16:42:12.630Z,71.97
2022-10-26T16:44:39.792Z,72.12
2022-10-26T16:47:06.717Z,72.26
2022-10-26T16:49:33.441Z,72.29
2022-10-26T16:52:00.285Z,72.40
2022-10-26T16:54:27.114Z,72.80
2022-10-26T16:56:53.870Z,72.91
2022-10-26T16:59:20.586Z,72.95
2022-10-26T17:01:47.524Z,73.20
2022-10-26T17:04:14.430Z,73.12
2022-10-26T17:06:41.571Z,73.33
2022-10-26T17:09:08.535Z,73.17
2022-10-26T17:11:35.360Z,73.09
2022-10-26T17:14:02.152Z,73.13
2022-10-26T17:16:29.070Z,73.16
2022-10-26T17:18:56.052Z,73.25
2022-10-26T17:21:31.083Z,73.16
2022-10-26T17:23:58.465Z,73.17
2022-10-26T17:26:25.245Z,73.38
2022-10-26T17:28:52.989Z,73.30
2022-10-26T17:31:19.917Z,73.43
2022-10-26T17:33:50.401Z,73.70
2022-10-26T17:36:20.389Z,73.72
2022-10-26T17:38:52.023Z,73.73
2022-10-26T17:41:20.415Z,74.11
2022-10-26T17:43:48.854Z,73.64
2022-10-26T17:46:26.585Z,74.00
2022-10-26T17:48:55.180Z,74.15
2022-10-26T17:51:22.078Z,74.31
2022-10-26T17:53:50.149Z,74.21
2022-10-26T17:56:21.975Z,74.17
2022-10-26T17:59:03.435Z,74.34
2022-10-26T18:01:31.832Z,74.21
2022-10-26T18:03:59.485Z,74.19
2022-10-26T18:06:26.289Z,74.39
2022-10-26T18:08:53.268Z,74.43
2022-10-26T18:11:26.508Z,74.62
2022-10-26T18:13:57.402Z,74.57
2022-10-26T18:16:25.802Z,74.62
2022-10-26T18:19:02.250Z,74.81
2022-10-26T18:21:31.932Z,74.87
2022-10-26T18:23:59.289Z,74.91
2022-10-26T18:26:28.911Z,74.71
2022-10-26T18:29:00.399Z,74.97
2022-10-26T18:31:28.401Z,74.78
2022-10-26T18:33:57.295Z,74.96
2022-10-26T18:39:07.442Z,75.29
2022-10-26T18:41:37.636Z,74.93
2022-10-26T18:44:08.868Z,75.32
2022-10-26T18:46:40.129Z,75.36
2022-10-26T18:49:09.696Z,75.44
2022-10-26T18:51:36.455Z,75.22
2022-10-26T18:54:03.565Z,75.67
2022-10-26T18:56:30.874Z,75.51
2022-10-26T18:58:59.604Z,75.38
2022-10-26T19:01:31.880Z,75.50
2022-10-26T19:04:04.974Z,75.75
2022-10-26T19:06:34.524Z,75.84
2022-10-26T19:09:02.117Z,75.50
2022-10-26T19:11:30.300Z,75.86
2022-10-26T19:14:00.550Z,76.01
2022-10-26T19:16:47.182Z,75.99
2022-10-26T19:19:18.436Z,75.94
2022-10-26T19:21:49.046Z,76.31
2022-10-26T19:24:18.126Z,75.97
2022-10-26T19:26:45.489Z,76.24
2022-10-26T19:29:17.651Z,76.37
2022-10-26T19:31:46.743Z,76.33
2022-10-26T19:34:14.957Z,76.43
2022-10-26T19:36:45.147Z,76.39
2022-10-26T19:39:13.573Z,76.70
2022-10-26T19:41:40.406Z,76.71
2022-10-26T19:44:10.266Z,76.71
2022-10-26T19:46:41.614Z,76.88
2022-10-26T19:49:17.155Z,77.09
2022-10-26T19:51:53.951Z,76.81
2022-10-26T19:54:20.747Z,76.68
2022-10-26T19:56:47.691Z,77.03
2022-10-26T19:59:14.619Z,77.16
2022-10-26T20:01:41.365Z,76.82
2022-10-26T20:04:08.500Z,77.16
2022-10-26T20:06:35.242Z,76.92
2022-10-26T20:09:03.685Z,77.25
2022-10-26T20:11:32.441Z,77.07
2022-10-26T20:13:59.429Z,77.42
2022-10-26T20:16:26.556Z,77.49
2022-10-26T20:18:56.443Z,77.59
2022-10-26T20:21:23.188Z,77.63
2022-10-26T20:23:50.207Z,77.67
2022-10-26T20:26:19.775Z,77.73
2022-10-26T20:28:49.116Z,77.74
2022-10-26T20:31:18.551Z,77.99
2022-10-26T20:33:45.633Z,78.13
2022-10-26T20:36:12.646Z,78.02
2022-10-26T20:38:40.342Z,78.29
2022-10-26T20:41:10.438Z,78.38
2022-10-26T20:43:38.993Z,78.58
2022-10-26T20:46:07.015Z,78.24
2022-10-26T20:48:34.283Z,78.12
2022-10-26T20:53:43.125Z,78.23
2022-10-26T20:56:24.057Z,78.21
2022-10-26T20:58:53.832Z,78.24
2022-10-26T21:01:27.044Z,78.72
2022-10-26T21:03:55.788Z,78.54
2022-10-26T21:06:23.344Z,78.71
2022-10-26T21:08:51.007Z,78.85
2022-10-26T21:11:18.582Z,78.88
2022-10-26T21:13:47.164Z,78.95
2022-10-26T21:16:14.263Z,79.01
2022-10-26T21:18:41.268Z,78.93
2022-10-26T21:21:08.155Z,78.83
2022-10-26T21:23:37.560Z,78.63
2022-10-26T21:26:04.707Z,79.04
2022-10-26T21:28:39.050Z,79.10
2022-10-26T21:31:07.978Z,78.97
2022-10-26T21:33:35.579Z,79.24
2022-10-26T21:36:03.828Z,79.25
2022-10-26T21:38:32.094Z,79.66
2022-10-26T21:41:06.725Z,79.58
2022-10-26T21:43:34.443Z,79.31
2022-10-26T21:46:04.697Z,79.40
2022-10-26T21:48:32.189Z,79.69
2022-10-26T21:51:01.245Z,79.35
2022-10-26T21:53:28.180Z,79.85
2022-10-26T21:56:02.202Z,79.59
2022-10-26T21:58:29.949Z,79.91
2022-10-26T22:01:13.076Z,79.73
2022-10-26T22:03:40.676Z,79.73
2022-10-26T22:06:08.727Z,79.92
2022-10-26T22:08:36.570Z,80.02
2022-10-26T22:11:10.524Z,79.83
2022-10-26T22:13:40.141Z,80.14
2022-10-26T22:16:15.314Z,80.26
2022-10-26T22:18:44.032Z,80.58
2022-10-26T22:21:12.218Z,80.44
2022-10-26T22:23:40.237Z,80.74
2022-10-26T22:26:12.744Z,80.66
2022-10-26T22:28:42.756Z,80.74
2022-10-26T22:31:15.066Z,80.74
2022-10-26T22:33:42.185Z,80.96
2022-10-26T22:36:14.623Z,80.92
2022-10-26T22:38:41.888Z,80.44
2022-10-26T22:41:09.689Z,80.73
2022-10-26T22:43:36.466Z,80.33
2022-10-26T22:46:04.513Z,80.56
2022-10-26T22:48:31.983Z,80.52
2022-10-26T22:50:58.861Z,80.27
2022-10-26T22:53:25.623Z,80.20
2022-10-26T22:55:52.418Z,80.39
2022-10-26T22:58:19.265Z,80.39
2022-10-26T23:00:45.968Z,80.33
2022-10-26T23:03:12.769Z,79.89
2022-10-26T23:05:45.886Z,80.14
2022-10-26T23:08:12.740Z,80.34
2022-10-26T23:10:39.453Z,80.53
2022-10-26T23:13:06.198Z,80.42
2022-10-26T23:15:32.993Z,80.21
2022-10-26T23:17:59.657Z,80.32
2022-10-26T23:20:26.302Z,80.59
2022-10-26T23:22:53.586Z,80.32
2022-10-26T23:25:20.454Z,80.24
2022-10-26T23:27:47.141Z,80.10
2022-10-26T23:30:13.946Z,80.44
2022-10-26T23:32:40.700Z,80.24
2022-10-26T23:35:07.587Z,80.51
2022-10-26T23:37:34.266Z,80.39
2022-10-26T23:40:00.949Z,80.70
2022-10-26T23:42:27.645Z,80.85
2022-10-26T23:44:54.339Z,80.94
2022-10-26T23:47:21.077Z,81.10
2022-10-26T23:49:49.393Z,81.15
2022-10-26T23:52:16.284Z,81.54
2022-10-26T23:54:43.043Z,81.58
2022-10-26T23:57:09.796Z,81.37
2022-10-26T23:59:36.553Z,81.54
